Terminal Aerodrome Forecast
Issued by NWS

Home | Current Version | Previous Version | Text Only | Print | Product List | Glossary On
Versions: 1 2 3 4 5 6 7 8 9 10 11 12 13 14 15 16 17 18
000
FTUS43 KLSX 272320
TAFUIN
TAF
KUIN 272320Z 2800/2824 VRB04KT P6SM VCTS SCT030CB BKN080
      TEMPO 2800/2802 VRB20G40KT 1SM +TSRA BKN025CB
     FM280300 VRB04KT P6SM SCT100
     FM280800 10006KT 3SM BR SCT025
     FM281400 15006KT P6SM SCT030
     FM282000 15006KT P6SM VCTS SCT035CB=

USA.gov is the U.S. government's official web portal to all federal, state and local government web resources and services.